sensor_id;sensor_type;location;lat;lon;timestamp;P1;durP1;ratioP1;P2;durP2;ratioP2
31010;SDS011;26395;53.412;19.598;2023-08-21T00:08:46;17.70;;;15.10;;
31010;SDS011;26395;53.412;19.598;2023-08-21T00:23:50;20.10;;;15.80;;
31010;SDS011;26395;53.412;19.598;2023-08-21T00:38:53;20.50;;;16.20;;
31010;SDS011;26395;53.412;19.598;2023-08-21T00:53:57;23.10;;;16.20;;
31010;SDS011;26395;53.412;19.598;2023-08-21T01:24:10;17.40;;;12.80;;
31010;SDS011;26395;53.412;19.598;2023-08-21T01:39:16;17.20;;;12.50;;
31010;SDS011;26395;53.412;19.598;2023-08-21T01:54:20;15.70;;;12.00;;
31010;SDS011;26395;53.412;19.598;2023-08-21T02:09:23;15.30;;;11.60;;
31010;SDS011;26395;53.412;19.598;2023-08-21T02:24:26;14.10;;;12.30;;
31010;SDS011;26395;53.412;19.598;2023-08-21T02:39:30;15.40;;;11.70;;
31010;SDS011;26395;53.412;19.598;2023-08-21T03:00:47;16.00;;;11.90;;
31010;SDS011;26395;53.412;19.598;2023-08-21T03:15:50;14.40;;;10.80;;
31010;SDS011;26395;53.412;19.598;2023-08-21T03:30:53;13.60;;;10.30;;
31010;SDS011;26395;53.412;19.598;2023-08-21T03:45:57;15.80;;;12.20;;
31010;SDS011;26395;53.412;19.598;2023-08-21T04:01:00;20.90;;;12.80;;
31010;SDS011;26395;53.412;19.598;2023-08-21T04:16:04;17.30;;;12.30;;
31010;SDS011;26395;53.412;19.598;2023-08-21T04:31:07;19.40;;;13.20;;
31010;SDS011;26395;53.412;19.598;2023-08-21T04:46:11;19.10;;;13.20;;
31010;SDS011;26395;53.412;19.598;2023-08-21T05:01:16;20.80;;;12.60;;
31010;SDS011;26395;53.412;19.598;2023-08-21T05:16:20;18.80;;;13.60;;
31010;SDS011;26395;53.412;19.598;2023-08-21T05:31:24;19.60;;;12.80;;
31010;SDS011;26395;53.412;19.598;2023-08-21T05:46:29;15.90;;;11.90;;
31010;SDS011;26395;53.412;19.598;2023-08-21T06:01:32;13.70;;;10.10;;
31010;SDS011;26395;53.412;19.598;2023-08-21T06:16:36;11.50;;;8.70;;
31010;SDS011;26395;53.412;19.598;2023-08-21T06:31:40;11.60;;;8.30;;
31010;SDS011;26395;53.412;19.598;2023-08-21T06:46:44;18.40;;;9.70;;
31010;SDS011;26395;53.412;19.598;2023-08-21T07:01:47;14.30;;;8.40;;
31010;SDS011;26395;53.412;19.598;2023-08-21T07:16:50;10.90;;;7.50;;
31010;SDS011;26395;53.412;19.598;2023-08-21T07:31:54;13.40;;;7.10;;
31010;SDS011;26395;53.412;19.598;2023-08-21T07:46:57;8.30;;;6.30;;
31010;SDS011;26395;53.412;19.598;2023-08-21T08:02:00;7.70;;;5.70;;
31010;SDS011;26395;53.412;19.598;2023-08-21T08:17:05;12.50;;;7.00;;
31010;SDS011;26395;53.412;19.598;2023-08-21T08:32:09;4.30;;;3.50;;
31010;SDS011;26395;53.412;19.598;2023-08-21T08:47:12;17.10;;;12.90;;
31010;SDS011;26395;53.412;19.598;2023-08-21T09:02:17;6.70;;;5.10;;
31010;SDS011;26395;53.412;19.598;2023-08-21T09:17:21;4.10;;;2.90;;
31010;SDS011;26395;53.412;19.598;2023-08-21T09:32:24;4.20;;;2.10;;
31010;SDS011;26395;53.412;19.598;2023-08-21T09:47:27;2.40;;;2.10;;
31010;SDS011;26395;53.412;19.598;2023-08-21T10:02:31;2.90;;;1.60;;
31010;SDS011;26395;53.412;19.598;2023-08-21T10:17:35;3.20;;;1.80;;
31010;SDS011;26395;53.412;19.598;2023-08-21T10:32:46;7.40;;;1.60;;
31010;SDS011;26395;53.412;19.598;2023-08-21T10:47:50;4.50;;;1.60;;
31010;SDS011;26395;53.412;19.598;2023-08-21T11:02:54;6.30;;;1.50;;
31010;SDS011;26395;53.412;19.598;2023-08-21T11:17:58;3.90;;;1.60;;
31010;SDS011;26395;53.412;19.598;2023-08-21T11:33:05;8.90;;;1.80;;
31010;SDS011;26395;53.412;19.598;2023-08-21T11:48:08;3.20;;;1.60;;
31010;SDS011;26395;53.412;19.598;2023-08-21T12:03:12;6.80;;;1.40;;
31010;SDS011;26395;53.412;19.598;2023-08-21T12:18:21;4.20;;;1.90;;
31010;SDS011;26395;53.412;19.598;2023-08-21T12:33:25;5.70;;;1.80;;
31010;SDS011;26395;53.412;19.598;2023-08-21T12:48:29;3.40;;;1.80;;
31010;SDS011;26395;53.412;19.598;2023-08-21T13:03:33;3.00;;;2.10;;
31010;SDS011;26395;53.412;19.598;2023-08-21T13:18:37;2.70;;;2.10;;
31010;SDS011;26395;53.412;19.598;2023-08-21T13:33:44;3.90;;;2.40;;
31010;SDS011;26395;53.412;19.598;2023-08-21T13:48:51;3.70;;;2.20;;
31010;SDS011;26395;53.412;19.598;2023-08-21T14:03:54;3.40;;;2.30;;
31010;SDS011;26395;53.412;19.598;2023-08-21T14:18:57;6.30;;;1.90;;
31010;SDS011;26395;53.412;19.598;2023-08-21T14:34:01;3.30;;;2.20;;
31010;SDS011;26395;53.412;19.598;2023-08-21T14:49:04;6.30;;;2.30;;
31010;SDS011;26395;53.412;19.598;2023-08-21T15:04:07;14.20;;;2.60;;
31010;SDS011;26395;53.412;19.598;2023-08-21T15:19:12;6.50;;;2.10;;
31010;SDS011;26395;53.412;19.598;2023-08-21T15:34:15;6.70;;;3.60;;
31010;SDS011;26395;53.412;19.598;2023-08-21T15:49:19;5.70;;;2.30;;
31010;SDS011;26395;53.412;19.598;2023-08-21T16:04:22;11.40;;;3.30;;
31010;SDS011;26395;53.412;19.598;2023-08-21T16:19:26;5.30;;;2.90;;
31010;SDS011;26395;53.412;19.598;2023-08-21T16:34:30;4.70;;;2.30;;
31010;SDS011;26395;53.412;19.598;2023-08-21T16:49:36;7.10;;;2.20;;
31010;SDS011;26395;53.412;19.598;2023-08-21T17:04:39;13.70;;;4.60;;
31010;SDS011;26395;53.412;19.598;2023-08-21T17:19:43;9.40;;;5.70;;
31010;SDS011;26395;53.412;19.598;2023-08-21T17:34:46;14.50;;;8.30;;
31010;SDS011;26395;53.412;19.598;2023-08-21T17:49:53;43.60;;;5.70;;
31010;SDS011;26395;53.412;19.598;2023-08-21T18:04:56;29.30;;;13.70;;
31010;SDS011;26395;53.412;19.598;2023-08-21T18:20:03;18.50;;;6.40;;
31010;SDS011;26395;53.412;19.598;2023-08-21T18:35:08;17.10;;;6.60;;
31010;SDS011;26395;53.412;19.598;2023-08-21T18:50:18;9.60;;;3.80;;
31010;SDS011;26395;53.412;19.598;2023-08-21T19:05:23;31.20;;;11.70;;
31010;SDS011;26395;53.412;19.598;2023-08-21T19:20:27;10.40;;;3.50;;
31010;SDS011;26395;53.412;19.598;2023-08-21T19:35:31;10.10;;;3.90;;
31010;SDS011;26395;53.412;19.598;2023-08-21T19:50:38;10.90;;;4.40;;
31010;SDS011;26395;53.412;19.598;2023-08-21T20:05:42;7.60;;;3.40;;
31010;SDS011;26395;53.412;19.598;2023-08-21T20:20:46;11.70;;;3.60;;
31010;SDS011;26395;53.412;19.598;2023-08-21T20:35:51;11.60;;;4.40;;
31010;SDS011;26395;53.412;19.598;2023-08-21T20:50:55;10.50;;;3.50;;
31010;SDS011;26395;53.412;19.598;2023-08-21T21:06:00;10.90;;;4.50;;
31010;SDS011;26395;53.412;19.598;2023-08-21T21:21:03;13.00;;;5.30;;
31010;SDS011;26395;53.412;19.598;2023-08-21T21:36:06;11.80;;;5.00;;
31010;SDS011;26395;53.412;19.598;2023-08-21T21:51:09;8.10;;;3.10;;
31010;SDS011;26395;53.412;19.598;2023-08-21T22:06:13;4.70;;;2.80;;
31010;SDS011;26395;53.412;19.598;2023-08-21T22:21:16;4.70;;;2.80;;
31010;SDS011;26395;53.412;19.598;2023-08-21T22:36:20;9.30;;;2.40;;
31010;SDS011;26395;53.412;19.598;2023-08-21T22:51:23;9.40;;;2.40;;
31010;SDS011;26395;53.412;19.598;2023-08-21T23:06:26;6.60;;;2.40;;
31010;SDS011;26395;53.412;19.598;2023-08-21T23:21:29;9.00;;;2.60;;
31010;SDS011;26395;53.412;19.598;2023-08-21T23:36:37;70.90;;;40.80;;
31010;SDS011;26395;53.412;19.598;2023-08-21T23:51:41;85.00;;;47.60;;
